sensor_id;sensor_type;location;lat;lon;timestamp;temperature;humidity
3488;DHT22;38546;48.170;11.724;2022-12-19T00:00:34;-4.70;99.90
3488;DHT22;38546;48.170;11.724;2022-12-19T00:03:23;-4.70;99.90
3488;DHT22;38546;48.170;11.724;2022-12-19T00:06:14;-4.70;99.90
3488;DHT22;38546;48.170;11.724;2022-12-19T00:09:05;-4.70;99.90
3488;DHT22;38546;48.170;11.724;2022-12-19T00:11:54;-4.70;99.90
3488;DHT22;38546;48.170;11.724;2022-12-19T00:14:44;-4.70;99.90
3488;DHT22;38546;48.170;11.724;2022-12-19T00:17:33;-4.70;99.90
3488;DHT22;38546;48.170;11.724;2022-12-19T00:20:22;-4.70;99.90
3488;DHT22;38546;48.170;11.724;2022-12-19T00:23:12;-4.70;99.90
3488;DHT22;38546;48.170;11.724;2022-12-19T00:27:53;-4.70;99.90
3488;DHT22;38546;48.170;11.724;2022-12-19T00:30:43;-4.70;99.90
3488;DHT22;38546;48.170;11.724;2022-12-19T00:33:33;-4.70;99.90
3488;DHT22;38546;48.170;11.724;2022-12-19T00:36:25;-4.70;99.90
3488;DHT22;38546;48.170;11.724;2022-12-19T00:39:19;-4.70;99.90
3488;DHT22;38546;48.170;11.724;2022-12-19T00:42:09;-4.70;99.90
3488;DHT22;38546;48.170;11.724;2022-12-19T00:44:58;-4.70;99.90
3488;DHT22;38546;48.170;11.724;2022-12-19T00:47:47;-4.70;99.90
3488;DHT22;38546;48.170;11.724;2022-12-19T00:50:37;-4.70;99.90
3488;DHT22;38546;48.170;11.724;2022-12-19T00:53:26;-4.60;99.90
3488;DHT22;38546;48.170;11.724;2022-12-19T00:56:19;-4.60;99.90
3488;DHT22;38546;48.170;11.724;2022-12-19T00:59:11;-4.60;99.90
3488;DHT22;38546;48.170;11.724;2022-12-19T01:02:01;-4.50;99.90
3488;DHT22;38546;48.170;11.724;2022-12-19T01:04:50;-4.30;99.90
3488;DHT22;38546;48.170;11.724;2022-12-19T01:07:40;-4.30;99.90
3488;DHT22;38546;48.170;11.724;2022-12-19T01:10:30;-4.40;99.90
3488;DHT22;38546;48.170;11.724;2022-12-19T01:13:21;-4.70;99.90
3488;DHT22;38546;48.170;11.724;2022-12-19T01:16:15;-4.60;99.90
3488;DHT22;38546;48.170;11.724;2022-12-19T01:19:04;-4.70;99.90
3488;DHT22;38546;48.170;11.724;2022-12-19T01:21:53;-4.60;99.90
3488;DHT22;38546;48.170;11.724;2022-12-19T01:24:42;-4.70;99.90
3488;DHT22;38546;48.170;11.724;2022-12-19T01:27:31;-4.60;99.90
3488;DHT22;38546;48.170;11.724;2022-12-19T01:30:21;-4.80;99.90
3488;DHT22;38546;48.170;11.724;2022-12-19T01:33:13;-4.90;99.90
3488;DHT22;38546;48.170;11.724;2022-12-19T01:36:03;-4.90;99.90
3488;DHT22;38546;48.170;11.724;2022-12-19T01:38:56;-4.80;99.90
3488;DHT22;38546;48.170;11.724;2022-12-19T01:41:46;-4.80;99.90
3488;DHT22;38546;48.170;11.724;2022-12-19T01:44:35;-4.80;99.90
3488;DHT22;38546;48.170;11.724;2022-12-19T01:47:25;-4.80;99.90
3488;DHT22;38546;48.170;11.724;2022-12-19T01:50:18;-4.70;99.90
3488;DHT22;38546;48.170;11.724;2022-12-19T01:53:10;-4.70;99.90
3488;DHT22;38546;48.170;11.724;2022-12-19T01:56:01;-4.60;99.90
3488;DHT22;38546;48.170;11.724;2022-12-19T01:58:54;-4.40;99.90
3488;DHT22;38546;48.170;11.724;2022-12-19T02:01:45;-4.20;99.90
3488;DHT22;38546;48.170;11.724;2022-12-19T02:04:35;-4.20;99.90
3488;DHT22;38546;48.170;11.724;2022-12-19T02:07:26;-4.30;99.90
3488;DHT22;38546;48.170;11.724;2022-12-19T02:10:15;-4.30;99.90
3488;DHT22;38546;48.170;11.724;2022-12-19T02:13:05;-4.30;99.90
3488;DHT22;38546;48.170;11.724;2022-12-19T02:34:30;-4.40;99.90
3488;DHT22;38546;48.170;11.724;2022-12-19T02:39:31;-4.40;99.90
3488;DHT22;38546;48.170;11.724;2022-12-19T02:43:09;-4.50;99.90
3488;DHT22;38546;48.170;11.724;2022-12-19T02:46:03;-4.50;99.90
3488;DHT22;38546;48.170;11.724;2022-12-19T02:48:54;-4.40;99.90
3488;DHT22;38546;48.170;11.724;2022-12-19T02:51:44;-4.50;99.90
3488;DHT22;38546;48.170;11.724;2022-12-19T02:54:34;-4.50;99.90
3488;DHT22;38546;48.170;11.724;2022-12-19T02:59:01;-4.60;99.90
3488;DHT22;38546;48.170;11.724;2022-12-19T03:02:07;-4.60;99.90
3488;DHT22;38546;48.170;11.724;2022-12-19T03:05:24;-4.10;99.90
3488;DHT22;38546;48.170;11.724;2022-12-19T03:08:41;-4.40;99.90
3488;DHT22;38546;48.170;11.724;2022-12-19T03:11:35;-4.40;99.90
3488;DHT22;38546;48.170;11.724;2022-12-19T03:14:28;-4.40;99.90
3488;DHT22;38546;48.170;11.724;2022-12-19T03:17:18;-4.60;99.90
3488;DHT22;38546;48.170;11.724;2022-12-19T03:20:13;-4.30;99.90
3488;DHT22;38546;48.170;11.724;2022-12-19T03:23:08;-4.40;99.90
3488;DHT22;38546;48.170;11.724;2022-12-19T03:26:05;-4.50;99.90
3488;DHT22;38546;48.170;11.724;2022-12-19T03:29:10;-4.40;99.90
3488;DHT22;38546;48.170;11.724;2022-12-19T03:32:15;-4.50;99.90
3488;DHT22;38546;48.170;11.724;2022-12-19T03:35:16;-4.60;99.90
3488;DHT22;38546;48.170;11.724;2022-12-19T03:38:10;-4.60;99.90
3488;DHT22;38546;48.170;11.724;2022-12-19T03:41:02;-4.60;99.90
3488;DHT22;38546;48.170;11.724;2022-12-19T03:43:54;-4.60;99.90
3488;DHT22;38546;48.170;11.724;2022-12-19T03:46:50;-4.60;99.90
3488;DHT22;38546;48.170;11.724;2022-12-19T03:49:44;-4.60;99.90
3488;DHT22;38546;48.170;11.724;2022-12-19T03:53:02;-4.50;99.90
3488;DHT22;38546;48.170;11.724;2022-12-19T03:57:32;-4.40;99.90
3488;DHT22;38546;48.170;11.724;2022-12-19T04:00:25;-4.30;99.90
3488;DHT22;38546;48.170;11.724;2022-12-19T04:03:16;-4.40;99.90
3488;DHT22;38546;48.170;11.724;2022-12-19T04:06:08;-4.40;99.90
3488;DHT22;38546;48.170;11.724;2022-12-19T04:08:59;-4.30;99.90
3488;DHT22;38546;48.170;11.724;2022-12-19T04:11:53;-4.40;99.90
3488;DHT22;38546;48.170;11.724;2022-12-19T04:14:48;-4.30;99.90
3488;DHT22;38546;48.170;11.724;2022-12-19T04:17:50;-4.30;99.90
3488;DHT22;38546;48.170;11.724;2022-12-19T04:20:44;-4.30;99.90
3488;DHT22;38546;48.170;11.724;2022-12-19T04:23:43;-4.30;99.90
3488;DHT22;38546;48.170;11.724;2022-12-19T04:26:36;-4.30;99.90
3488;DHT22;38546;48.170;11.724;2022-12-19T04:29:27;-4.20;99.90
3488;DHT22;38546;48.170;11.724;2022-12-19T04:32:20;-4.00;99.90
3488;DHT22;38546;48.170;11.724;2022-12-19T04:35:10;-3.90;99.90
3488;DHT22;38546;48.170;11.724;2022-12-19T04:38:00;-3.80;99.90
3488;DHT22;38546;48.170;11.724;2022-12-19T04:40:50;-3.90;99.90
3488;DHT22;38546;48.170;11.724;2022-12-19T04:43:39;-3.90;99.90
3488;DHT22;38546;48.170;11.724;2022-12-19T04:46:28;-4.00;99.90
3488;DHT22;38546;48.170;11.724;2022-12-19T04:49:18;-4.00;99.90
3488;DHT22;38546;48.170;11.724;2022-12-19T04:52:07;-4.00;99.90
3488;DHT22;38546;48.170;11.724;2022-12-19T04:54:57;-3.60;99.90
3488;DHT22;38546;48.170;11.724;2022-12-19T04:57:46;-3.70;99.90
3488;DHT22;38546;48.170;11.724;2022-12-19T05:00:35;-3.90;99.90
3488;DHT22;38546;48.170;11.724;2022-12-19T05:03:25;-4.00;99.90
3488;DHT22;38546;48.170;11.724;2022-12-19T05:06:15;-4.00;99.90
3488;DHT22;38546;48.170;11.724;2022-12-19T05:09:05;-4.00;99.90
3488;DHT22;38546;48.170;11.724;2022-12-19T05:11:54;-4.00;99.90
3488;DHT22;38546;48.170;11.724;2022-12-19T05:14:43;-3.90;99.90
3488;DHT22;38546;48.170;11.724;2022-12-19T05:17:33;-3.90;99.90
3488;DHT22;38546;48.170;11.724;2022-12-19T05:20:23;-3.90;99.90
3488;DHT22;38546;48.170;11.724;2022-12-19T05:23:12;-3.80;99.90
3488;DHT22;38546;48.170;11.724;2022-12-19T05:26:03;-3.80;99.90
3488;DHT22;38546;48.170;11.724;2022-12-19T05:28:53;-3.80;99.90
3488;DHT22;38546;48.170;11.724;2022-12-19T05:31:43;-3.70;99.90
3488;DHT22;38546;48.170;11.724;2022-12-19T05:34:33;-3.70;99.90
3488;DHT22;38546;48.170;11.724;2022-12-19T05:37:22;-3.70;99.90
3488;DHT22;38546;48.170;11.724;2022-12-19T05:40:12;-3.60;99.90
3488;DHT22;38546;48.170;11.724;2022-12-19T05:43:02;-3.60;99.90
3488;DHT22;38546;48.170;11.724;2022-12-19T05:45:52;-3.60;99.90
3488;DHT22;38546;48.170;11.724;2022-12-19T05:48:41;-3.50;99.90
3488;DHT22;38546;48.170;11.724;2022-12-19T05:51:31;-3.50;99.90
3488;DHT22;38546;48.170;11.724;2022-12-19T05:54:21;-3.40;99.90
3488;DHT22;38546;48.170;11.724;2022-12-19T05:57:11;-3.40;99.90
3488;DHT22;38546;48.170;11.724;2022-12-19T06:00:00;-3.40;99.90
3488;DHT22;38546;48.170;11.724;2022-12-19T06:02:50;-3.30;99.90
3488;DHT22;38546;48.170;11.724;2022-12-19T06:05:41;-3.30;99.90
3488;DHT22;38546;48.170;11.724;2022-12-19T06:08:31;-3.30;99.90
3488;DHT22;38546;48.170;11.724;2022-12-19T06:11:21;-3.30;99.90
3488;DHT22;38546;48.170;11.724;2022-12-19T06:14:11;-3.30;99.90
3488;DHT22;38546;48.170;11.724;2022-12-19T06:17:00;-3.20;99.90
3488;DHT22;38546;48.170;11.724;2022-12-19T06:19:50;-3.20;99.90
3488;DHT22;38546;48.170;11.724;2022-12-19T06:22:39;-3.20;99.90
3488;DHT22;38546;48.170;11.724;2022-12-19T06:25:28;-3.10;99.90
3488;DHT22;38546;48.170;11.724;2022-12-19T06:28:17;-3.10;99.90
3488;DHT22;38546;48.170;11.724;2022-12-19T06:31:07;-3.10;99.90
3488;DHT22;38546;48.170;11.724;2022-12-19T06:33:57;-3.10;99.90
3488;DHT22;38546;48.170;11.724;2022-12-19T06:36:46;-3.00;99.90
3488;DHT22;38546;48.170;11.724;2022-12-19T06:39:35;-3.00;99.90
3488;DHT22;38546;48.170;11.724;2022-12-19T06:42:25;-3.00;99.90
3488;DHT22;38546;48.170;11.724;2022-12-19T06:45:14;-3.00;99.90
3488;DHT22;38546;48.170;11.724;2022-12-19T06:48:04;-3.00;99.90
3488;DHT22;38546;48.170;11.724;2022-12-19T06:50:53;-3.00;99.90
3488;DHT22;38546;48.170;11.724;2022-12-19T06:53:43;-3.00;99.90
3488;DHT22;38546;48.170;11.724;2022-12-19T06:56:38;-3.00;99.90
3488;DHT22;38546;48.170;11.724;2022-12-19T06:59:28;-3.00;99.90
3488;DHT22;38546;48.170;11.724;2022-12-19T07:02:26;-2.90;99.90
3488;DHT22;38546;48.170;11.724;2022-12-19T07:05:17;-2.90;99.90
3488;DHT22;38546;48.170;11.724;2022-12-19T07:08:10;-2.90;99.90
3488;DHT22;38546;48.170;11.724;2022-12-19T07:10:59;-2.90;99.90
3488;DHT22;38546;48.170;11.724;2022-12-19T07:13:48;-2.90;99.90
3488;DHT22;38546;48.170;11.724;2022-12-19T07:16:37;-2.90;99.90
3488;DHT22;38546;48.170;11.724;2022-12-19T07:19:27;-2.90;99.90
3488;DHT22;38546;48.170;11.724;2022-12-19T07:22:19;-2.80;99.90
3488;DHT22;38546;48.170;11.724;2022-12-19T07:25:09;-2.80;99.90
3488;DHT22;38546;48.170;11.724;2022-12-19T07:27:58;-2.80;99.90
3488;DHT22;38546;48.170;11.724;2022-12-19T07:30:48;-2.70;99.90
3488;DHT22;38546;48.170;11.724;2022-12-19T07:33:38;-2.60;99.90
3488;DHT22;38546;48.170;11.724;2022-12-19T07:36:27;-2.60;99.90
3488;DHT22;38546;48.170;11.724;2022-12-19T07:39:15;-2.60;99.90
3488;DHT22;38546;48.170;11.724;2022-12-19T07:42:05;-2.50;99.90
3488;DHT22;38546;48.170;11.724;2022-12-19T07:44:54;-2.40;99.90
3488;DHT22;38546;48.170;11.724;2022-12-19T07:47:43;-2.30;99.90
3488;DHT22;38546;48.170;11.724;2022-12-19T07:50:33;-2.30;99.90
3488;DHT22;38546;48.170;11.724;2022-12-19T07:53:22;-2.10;99.90
3488;DHT22;38546;48.170;11.724;2022-12-19T07:56:13;-2.10;99.90
3488;DHT22;38546;48.170;11.724;2022-12-19T07:59:03;-2.00;99.90
3488;DHT22;38546;48.170;11.724;2022-12-19T08:01:52;-2.00;99.90
3488;DHT22;38546;48.170;11.724;2022-12-19T08:04:41;-1.90;99.90
3488;DHT22;38546;48.170;11.724;2022-12-19T08:07:31;-1.80;99.90
3488;DHT22;38546;48.170;11.724;2022-12-19T08:10:21;-1.80;99.90
3488;DHT22;38546;48.170;11.724;2022-12-19T08:13:11;-1.60;99.90
3488;DHT22;38546;48.170;11.724;2022-12-19T08:16:00;-1.60;99.90
3488;DHT22;38546;48.170;11.724;2022-12-19T08:18:50;-1.50;99.90
3488;DHT22;38546;48.170;11.724;2022-12-19T08:21:40;-1.40;99.90
3488;DHT22;38546;48.170;11.724;2022-12-19T08:24:30;-1.30;99.90
3488;DHT22;38546;48.170;11.724;2022-12-19T08:27:20;-1.30;99.90
3488;DHT22;38546;48.170;11.724;2022-12-19T08:30:12;-1.20;99.90
3488;DHT22;38546;48.170;11.724;2022-12-19T08:33:02;-1.10;99.90
3488;DHT22;38546;48.170;11.724;2022-12-19T08:35:53;-1.00;99.90
3488;DHT22;38546;48.170;11.724;2022-12-19T08:38:43;-0.80;99.90
3488;DHT22;38546;48.170;11.724;2022-12-19T08:41:33;-0.80;99.90
3488;DHT22;38546;48.170;11.724;2022-12-19T08:44:22;-0.60;99.90
3488;DHT22;38546;48.170;11.724;2022-12-19T08:47:12;-0.50;99.90
3488;DHT22;38546;48.170;11.724;2022-12-19T08:50:02;-0.40;99.90
3488;DHT22;38546;48.170;11.724;2022-12-19T08:52:52;-0.30;99.90
3488;DHT22;38546;48.170;11.724;2022-12-19T08:55:42;-0.10;99.90
3488;DHT22;38546;48.170;11.724;2022-12-19T08:58:32;0.10;99.90
3488;DHT22;38546;48.170;11.724;2022-12-19T09:01:21;0.20;99.90
3488;DHT22;38546;48.170;11.724;2022-12-19T09:04:11;0.30;99.90
3488;DHT22;38546;48.170;11.724;2022-12-19T09:07:01;0.40;99.90
3488;DHT22;38546;48.170;11.724;2022-12-19T09:09:50;0.50;99.90
3488;DHT22;38546;48.170;11.724;2022-12-19T09:12:40;0.60;99.90
3488;DHT22;38546;48.170;11.724;2022-12-19T09:15:30;0.80;99.90
3488;DHT22;38546;48.170;11.724;2022-12-19T09:18:19;0.90;99.90
3488;DHT22;38546;48.170;11.724;2022-12-19T09:21:10;0.90;99.90
3488;DHT22;38546;48.170;11.724;2022-12-19T09:23:59;0.90;99.90
3488;DHT22;38546;48.170;11.724;2022-12-19T09:26:49;1.00;99.90
3488;DHT22;38546;48.170;11.724;2022-12-19T09:29:38;1.10;99.90
3488;DHT22;38546;48.170;11.724;2022-12-19T09:32:27;1.10;99.90
3488;DHT22;38546;48.170;11.724;2022-12-19T09:35:18;1.20;99.90
3488;DHT22;38546;48.170;11.724;2022-12-19T09:38:07;1.20;99.90
3488;DHT22;38546;48.170;11.724;2022-12-19T09:41:40;1.30;99.90
3488;DHT22;38546;48.170;11.724;2022-12-19T09:46:32;1.40;99.90
3488;DHT22;38546;48.170;11.724;2022-12-19T09:49:43;1.60;99.90
3488;DHT22;38546;48.170;11.724;2022-12-19T09:52:44;1.70;99.90
3488;DHT22;38546;48.170;11.724;2022-12-19T09:55:37;1.90;99.90
3488;DHT22;38546;48.170;11.724;2022-12-19T09:58:42;1.90;99.90
3488;DHT22;38546;48.170;11.724;2022-12-19T10:01:47;2.20;99.90
3488;DHT22;38546;48.170;11.724;2022-12-19T10:04:47;2.10;99.90
3488;DHT22;38546;48.170;11.724;2022-12-19T10:07:38;1.80;99.90
3488;DHT22;38546;48.170;11.724;2022-12-19T10:15:52;1.60;99.90
3488;DHT22;38546;48.170;11.724;2022-12-19T10:18:59;1.80;99.90
3488;DHT22;38546;48.170;11.724;2022-12-19T10:22:17;2.00;99.90
3488;DHT22;38546;48.170;11.724;2022-12-19T10:30:27;2.00;99.90
3488;DHT22;38546;48.170;11.724;2022-12-19T10:33:35;2.20;99.90
3488;DHT22;38546;48.170;11.724;2022-12-19T10:36:33;2.30;99.90
3488;DHT22;38546;48.170;11.724;2022-12-19T10:39:53;2.40;99.90
3488;DHT22;38546;48.170;11.724;2022-12-19T10:43:10;2.50;99.90
3488;DHT22;38546;48.170;11.724;2022-12-19T10:46:19;2.60;99.90
3488;DHT22;38546;48.170;11.724;2022-12-19T10:49:55;2.70;99.90
3488;DHT22;38546;48.170;11.724;2022-12-19T10:52:53;2.70;99.90
3488;DHT22;38546;48.170;11.724;2022-12-19T10:56:17;2.70;99.90
3488;DHT22;38546;48.170;11.724;2022-12-19T10:59:17;2.70;99.90
3488;DHT22;38546;48.170;11.724;2022-12-19T11:07:21;2.70;99.90
3488;DHT22;38546;48.170;11.724;2022-12-19T11:14:23;2.70;99.90
3488;DHT22;38546;48.170;11.724;2022-12-19T11:17:35;2.70;99.90
3488;DHT22;38546;48.170;11.724;2022-12-19T11:20:26;2.70;99.90
3488;DHT22;38546;48.170;11.724;2022-12-19T11:23:15;2.70;99.90
3488;DHT22;38546;48.170;11.724;2022-12-19T11:26:05;2.60;99.90
3488;DHT22;38546;48.170;11.724;2022-12-19T11:29:04;2.60;99.90
3488;DHT22;38546;48.170;11.724;2022-12-19T11:32:21;2.70;99.90
3488;DHT22;38546;48.170;11.724;2022-12-19T11:35:24;2.60;99.90
3488;DHT22;38546;48.170;11.724;2022-12-19T11:38:20;2.50;99.90
3488;DHT22;38546;48.170;11.724;2022-12-19T11:41:45;2.50;99.90
3488;DHT22;38546;48.170;11.724;2022-12-19T11:50:29;2.70;99.90
3488;DHT22;38546;48.170;11.724;2022-12-19T11:53:31;2.90;99.90
3488;DHT22;38546;48.170;11.724;2022-12-19T11:56:23;3.00;99.90
3488;DHT22;38546;48.170;11.724;2022-12-19T11:59:34;3.10;99.90
3488;DHT22;38546;48.170;11.724;2022-12-19T12:03:35;3.20;99.90
3488;DHT22;38546;48.170;11.724;2022-12-19T12:06:56;3.30;99.90
3488;DHT22;38546;48.170;11.724;2022-12-19T12:09:57;3.40;99.90
3488;DHT22;38546;48.170;11.724;2022-12-19T12:13:17;3.10;99.90
3488;DHT22;38546;48.170;11.724;2022-12-19T12:16:16;3.40;99.90
3488;DHT22;38546;48.170;11.724;2022-12-19T12:45:26;2.50;99.90
3488;DHT22;38546;48.170;11.724;2022-12-19T12:48:37;2.60;99.90
3488;DHT22;38546;48.170;11.724;2022-12-19T12:51:32;2.70;99.90
3488;DHT22;38546;48.170;11.724;2022-12-19T12:54:28;2.70;99.90
3488;DHT22;38546;48.170;11.724;2022-12-19T12:57:43;2.80;99.90
3488;DHT22;38546;48.170;11.724;2022-12-19T13:00:33;2.80;99.90
3488;DHT22;38546;48.170;11.724;2022-12-19T13:03:24;2.90;99.90
3488;DHT22;38546;48.170;11.724;2022-12-19T13:06:37;2.90;99.90
3488;DHT22;38546;48.170;11.724;2022-12-19T13:09:30;2.90;99.90
3488;DHT22;38546;48.170;11.724;2022-12-19T13:12:26;2.90;99.90
3488;DHT22;38546;48.170;11.724;2022-12-19T13:15:38;3.00;99.90
3488;DHT22;38546;48.170;11.724;2022-12-19T13:18:35;3.00;99.90
3488;DHT22;38546;48.170;11.724;2022-12-19T13:26:59;3.10;99.90
3488;DHT22;38546;48.170;11.724;2022-12-19T13:30:15;3.10;99.90
3488;DHT22;38546;48.170;11.724;2022-12-19T13:33:08;3.20;99.90
3488;DHT22;38546;48.170;11.724;2022-12-19T13:35:57;3.30;99.90
3488;DHT22;38546;48.170;11.724;2022-12-19T13:38:48;3.50;99.90
3488;DHT22;38546;48.170;11.724;2022-12-19T13:41:40;3.30;99.90
3488;DHT22;38546;48.170;11.724;2022-12-19T13:44:49;3.00;99.90
3488;DHT22;38546;48.170;11.724;2022-12-19T13:47:42;2.80;99.90
3488;DHT22;38546;48.170;11.724;2022-12-19T13:50:37;2.70;99.90
3488;DHT22;38546;48.170;11.724;2022-12-19T13:53:28;2.60;99.90
3488;DHT22;38546;48.170;11.724;2022-12-19T13:56:19;2.70;99.90
3488;DHT22;38546;48.170;11.724;2022-12-19T13:59:09;2.60;99.90
3488;DHT22;38546;48.170;11.724;2022-12-19T14:02:17;2.50;99.90
3488;DHT22;38546;48.170;11.724;2022-12-19T14:05:33;2.40;99.90
3488;DHT22;38546;48.170;11.724;2022-12-19T14:08:27;2.40;99.90
3488;DHT22;38546;48.170;11.724;2022-12-19T14:11:19;2.30;99.90
3488;DHT22;38546;48.170;11.724;2022-12-19T14:14:14;2.40;99.90
3488;DHT22;38546;48.170;11.724;2022-12-19T14:17:24;2.40;99.90
3488;DHT22;38546;48.170;11.724;2022-12-19T14:20:22;2.40;99.90
3488;DHT22;38546;48.170;11.724;2022-12-19T14:23:14;2.40;99.90
3488;DHT22;38546;48.170;11.724;2022-12-19T14:26:29;2.40;99.90
3488;DHT22;38546;48.170;11.724;2022-12-19T14:29:30;2.40;99.90
3488;DHT22;38546;48.170;11.724;2022-12-19T14:32:23;2.40;99.90
3488;DHT22;38546;48.170;11.724;2022-12-19T14:35:19;2.30;99.90
3488;DHT22;38546;48.170;11.724;2022-12-19T14:38:18;2.30;99.90
3488;DHT22;38546;48.170;11.724;2022-12-19T14:41:32;2.40;99.90
3488;DHT22;38546;48.170;11.724;2022-12-19T14:44:51;2.50;99.90
3488;DHT22;38546;48.170;11.724;2022-12-19T14:47:42;2.40;99.90
3488;DHT22;38546;48.170;11.724;2022-12-19T14:50:36;2.30;99.90
3488;DHT22;38546;48.170;11.724;2022-12-19T14:53:26;2.10;99.90
3488;DHT22;38546;48.170;11.724;2022-12-19T14:56:17;2.20;99.90
3488;DHT22;38546;48.170;11.724;2022-12-19T15:02:36;2.00;99.90
3488;DHT22;38546;48.170;11.724;2022-12-19T15:05:27;1.90;99.90
3488;DHT22;38546;48.170;11.724;2022-12-19T15:08:32;1.70;99.90
3488;DHT22;38546;48.170;11.724;2022-12-19T15:11:28;1.60;99.90
3488;DHT22;38546;48.170;11.724;2022-12-19T15:14:44;1.60;99.90
3488;DHT22;38546;48.170;11.724;2022-12-19T15:17:44;1.50;99.90
3488;DHT22;38546;48.170;11.724;2022-12-19T15:20:35;1.40;99.90
3488;DHT22;38546;48.170;11.724;2022-12-19T15:23:25;1.20;99.90
3488;DHT22;38546;48.170;11.724;2022-12-19T15:26:28;1.20;99.90
3488;DHT22;38546;48.170;11.724;2022-12-19T15:29:18;1.00;99.90
3488;DHT22;38546;48.170;11.724;2022-12-19T15:32:15;0.70;99.90
3488;DHT22;38546;48.170;11.724;2022-12-19T15:35:13;0.60;99.90
3488;DHT22;38546;48.170;11.724;2022-12-19T15:38:03;0.60;99.90
3488;DHT22;38546;48.170;11.724;2022-12-19T15:40:52;0.60;99.90
3488;DHT22;38546;48.170;11.724;2022-12-19T15:43:42;0.60;99.90
3488;DHT22;38546;48.170;11.724;2022-12-19T15:46:32;0.50;99.90
3488;DHT22;38546;48.170;11.724;2022-12-19T15:49:22;0.30;99.90
3488;DHT22;38546;48.170;11.724;2022-12-19T15:52:16;0.30;99.90
3488;DHT22;38546;48.170;11.724;2022-12-19T15:55:11;0.30;99.90
3488;DHT22;38546;48.170;11.724;2022-12-19T15:58:04;0.30;99.90
3488;DHT22;38546;48.170;11.724;2022-12-19T16:00:57;0.30;99.90
3488;DHT22;38546;48.170;11.724;2022-12-19T16:03:49;0.00;99.90
3488;DHT22;38546;48.170;11.724;2022-12-19T16:06:38;-0.20;99.90
3488;DHT22;38546;48.170;11.724;2022-12-19T16:09:27;-0.30;99.90
3488;DHT22;38546;48.170;11.724;2022-12-19T16:12:19;-0.30;99.90
3488;DHT22;38546;48.170;11.724;2022-12-19T16:16:11;-0.20;99.90
3488;DHT22;38546;48.170;11.724;2022-12-19T16:19:00;-0.10;99.90
3488;DHT22;38546;48.170;11.724;2022-12-19T16:21:50;0.00;99.90
3488;DHT22;38546;48.170;11.724;2022-12-19T16:24:39;0.10;99.90
3488;DHT22;38546;48.170;11.724;2022-12-19T16:27:29;0.10;99.90
3488;DHT22;38546;48.170;11.724;2022-12-19T16:30:22;-0.20;99.90
3488;DHT22;38546;48.170;11.724;2022-12-19T16:33:22;-0.20;99.90
3488;DHT22;38546;48.170;11.724;2022-12-19T16:36:13;-0.20;99.90
3488;DHT22;38546;48.170;11.724;2022-12-19T16:39:02;-0.30;99.90
3488;DHT22;38546;48.170;11.724;2022-12-19T16:41:51;-0.20;99.90
3488;DHT22;38546;48.170;11.724;2022-12-19T16:44:41;-0.20;99.90
3488;DHT22;38546;48.170;11.724;2022-12-19T16:47:32;-0.20;99.90
3488;DHT22;38546;48.170;11.724;2022-12-19T16:50:32;-0.10;99.90
3488;DHT22;38546;48.170;11.724;2022-12-19T16:53:22;-0.10;99.90
3488;DHT22;38546;48.170;11.724;2022-12-19T16:56:44;-0.10;99.90
3488;DHT22;38546;48.170;11.724;2022-12-19T17:00:21;-0.10;99.90
3488;DHT22;38546;48.170;11.724;2022-12-19T17:03:39;-0.10;99.90
3488;DHT22;38546;48.170;11.724;2022-12-19T17:06:29;-0.10;99.90
3488;DHT22;38546;48.170;11.724;2022-12-19T17:09:21;-0.10;99.90
3488;DHT22;38546;48.170;11.724;2022-12-19T17:12:16;-0.10;99.90
3488;DHT22;38546;48.170;11.724;2022-12-19T17:15:15;-0.10;99.90
3488;DHT22;38546;48.170;11.724;2022-12-19T17:18:15;-0.20;99.90
3488;DHT22;38546;48.170;11.724;2022-12-19T17:21:06;-0.20;99.90
3488;DHT22;38546;48.170;11.724;2022-12-19T17:23:57;-0.20;99.90
3488;DHT22;38546;48.170;11.724;2022-12-19T17:26:46;-0.20;99.90
3488;DHT22;38546;48.170;11.724;2022-12-19T17:29:36;-0.20;99.90
3488;DHT22;38546;48.170;11.724;2022-12-19T17:32:26;-0.20;99.90
3488;DHT22;38546;48.170;11.724;2022-12-19T17:35:17;-0.20;99.90
3488;DHT22;38546;48.170;11.724;2022-12-19T17:38:12;-0.20;99.90
3488;DHT22;38546;48.170;11.724;2022-12-19T17:41:02;-0.10;99.90
3488;DHT22;38546;48.170;11.724;2022-12-19T17:43:50;-0.10;99.90
3488;DHT22;38546;48.170;11.724;2022-12-19T17:46:41;-0.20;99.90
3488;DHT22;38546;48.170;11.724;2022-12-19T17:49:32;-0.10;99.90
3488;DHT22;38546;48.170;11.724;2022-12-19T17:52:21;-0.10;99.90
3488;DHT22;38546;48.170;11.724;2022-12-19T17:55:36;-0.20;99.90
3488;DHT22;38546;48.170;11.724;2022-12-19T17:58:25;-0.10;99.90
3488;DHT22;38546;48.170;11.724;2022-12-19T18:01:20;-0.10;99.90
3488;DHT22;38546;48.170;11.724;2022-12-19T18:04:15;-0.10;99.90
3488;DHT22;38546;48.170;11.724;2022-12-19T18:07:12;-0.10;99.90
3488;DHT22;38546;48.170;11.724;2022-12-19T18:10:13;0.00;99.90
3488;DHT22;38546;48.170;11.724;2022-12-19T18:13:03;0.00;99.90
3488;DHT22;38546;48.170;11.724;2022-12-19T18:16:00;0.00;99.90
3488;DHT22;38546;48.170;11.724;2022-12-19T18:18:50;0.00;99.90
3488;DHT22;38546;48.170;11.724;2022-12-19T18:21:40;0.00;99.90
3488;DHT22;38546;48.170;11.724;2022-12-19T18:24:29;0.10;99.90
3488;DHT22;38546;48.170;11.724;2022-12-19T18:27:18;0.00;99.90
3488;DHT22;38546;48.170;11.724;2022-12-19T18:30:09;0.10;99.90
3488;DHT22;38546;48.170;11.724;2022-12-19T18:33:02;0.10;99.90
3488;DHT22;38546;48.170;11.724;2022-12-19T18:35:53;0.20;99.90
3488;DHT22;38546;48.170;11.724;2022-12-19T18:38:42;0.20;99.90
3488;DHT22;38546;48.170;11.724;2022-12-19T18:41:32;0.30;99.90
3488;DHT22;38546;48.170;11.724;2022-12-19T18:44:21;0.30;99.90
3488;DHT22;38546;48.170;11.724;2022-12-19T18:47:21;0.30;99.90
3488;DHT22;38546;48.170;11.724;2022-12-19T18:50:20;0.30;99.90
3488;DHT22;38546;48.170;11.724;2022-12-19T18:53:13;0.40;99.90
3488;DHT22;38546;48.170;11.724;2022-12-19T18:56:04;0.40;99.90
3488;DHT22;38546;48.170;11.724;2022-12-19T18:58:54;0.50;99.90
3488;DHT22;38546;48.170;11.724;2022-12-19T19:01:45;0.50;99.90
3488;DHT22;38546;48.170;11.724;2022-12-19T19:04:35;0.50;99.90
3488;DHT22;38546;48.170;11.724;2022-12-19T19:07:24;0.60;99.90
3488;DHT22;38546;48.170;11.724;2022-12-19T19:10:31;0.60;99.90
3488;DHT22;38546;48.170;11.724;2022-12-19T19:13:22;0.70;99.90
3488;DHT22;38546;48.170;11.724;2022-12-19T19:16:24;0.70;99.90
3488;DHT22;38546;48.170;11.724;2022-12-19T19:19:15;0.60;99.90
3488;DHT22;38546;48.170;11.724;2022-12-19T19:22:06;0.60;99.90
3488;DHT22;38546;48.170;11.724;2022-12-19T19:24:55;0.60;99.90
3488;DHT22;38546;48.170;11.724;2022-12-19T19:27:43;0.70;99.90
3488;DHT22;38546;48.170;11.724;2022-12-19T19:30:35;0.60;99.90
3488;DHT22;38546;48.170;11.724;2022-12-19T19:33:31;0.60;99.90
3488;DHT22;38546;48.170;11.724;2022-12-19T19:36:24;0.70;99.90
3488;DHT22;38546;48.170;11.724;2022-12-19T19:39:16;0.60;99.90
3488;DHT22;38546;48.170;11.724;2022-12-19T19:42:07;0.60;99.90
3488;DHT22;38546;48.170;11.724;2022-12-19T19:44:56;0.60;99.90
3488;DHT22;38546;48.170;11.724;2022-12-19T19:47:45;0.60;99.90
3488;DHT22;38546;48.170;11.724;2022-12-19T19:50:35;0.60;99.90
3488;DHT22;38546;48.170;11.724;2022-12-19T19:53:24;0.60;99.90
3488;DHT22;38546;48.170;11.724;2022-12-19T19:56:14;0.60;99.90
3488;DHT22;38546;48.170;11.724;2022-12-19T19:59:03;0.50;99.90